Time;durP1;ratioP1;P1;durP2;ratioP2;P2;SDS_P1;SDS_P2;PMS_P1;PMS_P2;Temp;Humidity;BMP_temperature;BMP_pressure;BME280_temperature;BME280_humidity;BME280_pressure;Samples;Min_cycle;Max_cycle;Signal;HPM_P1;HPM_P2
2024/04/05 00:00:47;;;;;;;;;;;;;;;;;;4961284;28;93696;-70
2024/04/05 00:03:12;;;;;;;;;;;;;;;;;;4960993;28;93027;-70
2024/04/05 00:05:37;;;;;;;;;;;;;;;;;;4961292;28;92538;-70
2024/04/05 00:08:03;;;;;;;;;;;;;;;;;;4959639;28;93669;-70
2024/04/05 00:10:28;;;;;;;;;;;;;;;;;;4961083;28;93618;-70
2024/04/05 00:12:53;;;;;;;;;;;;;;;;;;4963852;28;92704;-70
2024/04/05 00:15:18;;;;;;;;;;;;;;;;;;4961538;28;92997;-70
2024/04/05 00:17:44;;;;;;;;;;;;;;;;;;4959798;28;93500;-70
2024/04/05 00:20:09;;;;;;;;;;;;;;;;;;4961463;28;93395;-71
2024/04/05 00:22:35;;;;;;;;;;;;;;;;;;4960633;28;92819;-70
2024/04/05 00:25:00;;;;;;;;;;;;;;;;;;4959602;28;92293;-69
2024/04/05 00:27:27;;;;;;;;;;;;;;;;;;4960350;28;92650;-71
2024/04/05 00:29:52;;;;;;;;;;;;;;;;;;4960162;28;93178;-69
2024/04/05 00:32:17;;;;;;;;;;;;;;;;;;4960894;28;93690;-71
2024/04/05 00:34:42;;;;;;;;;;;;;;;;;;4964732;28;92514;-71
2024/04/05 00:37:08;;;;;;;;;;;;;;;;;;4960599;28;92683;-70
2024/04/05 00:39:33;;;;;;;;;;;;;;;;;;4960246;28;93081;-70
2024/04/05 00:41:58;;;;;;;;;;;;;;;;;;4960320;28;94047;-70
2024/04/05 00:44:24;;;;;;;;;;;;;;;;;;4963266;28;92660;-69
2024/04/05 00:46:49;;;;;;;;;;;;;;;;;;4963906;28;92988;-69
2024/04/05 00:49:14;;;;;;;;;;;;;;;;;;4963660;28;92973;-69
2024/04/05 00:51:40;;;;;;;;;;;;;;;;;;4962740;28;92851;-69
2024/04/05 00:54:05;;;;;;;;;;;;;;;;;;4964897;28;95433;-69
2024/04/05 00:56:31;;;;;;;;;;;;;;;;;;4963754;28;92738;-69
2024/04/05 00:58:56;;;;;;;;;;;;;;;;;;4963817;28;92577;-70
2024/04/05 01:01:23;;;;;;;;;;;;;;;;;;4963042;28;92906;-70
2024/04/05 01:03:48;;;;;;;;;;;;;;;;;;4959628;28;92877;-70
2024/04/05 01:06:13;;;;;;;;;;;;;;;;;;4962305;28;93838;-70
2024/04/05 01:08:38;;;;;;;;;;;;;;;;;;4963785;28;92956;-71
2024/04/05 01:11:04;;;;;;;;;;;;;;;;;;4964053;28;93096;-70
2024/04/05 01:13:29;;;;;;;;;;;;;;;;;;4964651;28;93415;-71
2024/04/05 01:15:55;;;;;;;;;;;;;;;;;;4967707;28;93040;-72
2024/04/05 01:18:20;;;;;;;;;;;;;;;;;;4964505;28;92730;-71
2024/04/05 01:20:47;;;;;;;;;;;;;;;;;;4963586;28;92952;-70
2024/04/05 01:23:16;;;;;;;;;;;;;;;;;;4964425;28;91533;-71
2024/04/05 01:25:41;;;;;;;;;;;;;;;;;;4962867;28;92684;-69
2024/04/05 01:28:10;;;;;;;;;;;;;;;;;;4963132;28;93367;-70
2024/04/05 01:30:36;;;;;;;;;;;;;;;;;;4962469;28;93522;-71
2024/04/05 01:33:01;;;;;;;;;;;;;;;;;;4963120;28;93937;-70
2024/04/05 01:35:27;;;;;;;;;;;;;;;;;;4963317;28;92991;-70
2024/04/05 01:37:53;;;;;;;;;;;;;;;;;;4966165;28;92583;-69
2024/04/05 01:40:18;;;;;;;;;;;;;;;;;;4963892;28;92946;-70
2024/04/05 01:42:43;;;;;;;;;;;;;;;;;;4964516;28;92948;-70
2024/04/05 01:45:08;;;;;;;;;;;;;;;;;;4964200;28;92661;-70
2024/04/05 01:47:33;;;;;;;;;;;;;;;;;;4958036;28;92075;-69
2024/04/05 01:49:59;;;;;;;;;;;;;;;;;;4961506;28;92947;-70
2024/04/05 01:52:24;;;;;;;;;;;;;;;;;;4963281;28;92537;-70
2024/04/05 01:54:51;;;;;;;;;;;;;;;;;;4961798;28;95132;-69
2024/04/05 01:57:16;;;;;;;;;;;;;;;;;;4994755;28;92677;-70
2024/04/05 01:59:48;;;;;;;;;;;;;;;;;;4967225;28;92624;-71
2024/04/05 02:02:13;;;;;;;;;;;;;;;;;;4963940;28;92295;-70
2024/04/05 02:04:38;;;;;;;;;;;;;;;;;;4963412;28;92742;-69
2024/04/05 02:07:03;;;;;;;;;;;;;;;;;;4963302;28;93005;-70
2024/04/05 02:09:29;;;;;;;;;;;;;;;;;;4963260;28;92400;-70
2024/04/05 02:11:54;;;;;;;;;;;;;;;;;;4963569;28;92963;-71
2024/04/05 02:14:19;;;;;;;;;;;;;;;;;;4969260;28;92831;-70
2024/04/05 02:16:44;;;;;;;;;;;;;;;;;;4963698;28;92664;-70
2024/04/05 02:19:09;;;;;;;;;;;;;;;;;;4962951;28;95135;-70
2024/04/05 02:21:35;;;;;;;;;;;;;;;;;;4966263;28;93393;-70
2024/04/05 02:24:00;;;;;;;;;;;;;;;;;;4961755;28;95036;-70
2024/04/05 02:26:25;;;;;;;;;;;;;;;;;;4963137;28;92829;-70
2024/04/05 02:28:50;;;;;;;;;;;;;;;;;;4963206;28;92674;-70
2024/04/05 02:31:16;;;;;;;;;;;;;;;;;;4962407;28;92788;-69
2024/04/05 02:33:41;;;;;;;;;;;;;;;;;;4962483;28;93560;-70
2024/04/05 02:36:07;;;;;;;;;;;;;;;;;;4964010;28;93343;-73
2024/04/05 02:38:32;;;;;;;;;;;;;;;;;;4962016;28;92363;-69
2024/04/05 02:40:58;;;;;;;;;;;;;;;;;;4961612;28;92969;-70
2024/04/05 02:43:23;;;;;;;;;;;;;;;;;;4963702;28;93936;-70
2024/04/05 02:45:48;;;;;;;;;;;;;;;;;;4961011;28;93358;-70
2024/04/05 02:48:13;;;;;;;;;;;;;;;;;;4961657;28;92876;-70
2024/04/05 02:50:39;;;;;;;;;;;;;;;;;;4960665;28;93061;-70
2024/04/05 02:53:04;;;;;;;;;;;;;;;;;;4960876;28;93348;-69
2024/04/05 02:55:30;;;;;;;;;;;;;;;;;;4960872;28;92508;-70
2024/04/05 02:57:55;;;;;;;;;;;;;;;;;;4961009;28;92705;-70
2024/04/05 03:00:21;;;;;;;;;;;;;;;;;;4961345;28;92794;-70
2024/04/05 03:02:46;;;;;;;;;;;;;;;;;;4964409;28;92976;-71
2024/04/05 03:05:12;;;;;;;;;;;;;;;;;;4962015;28;93317;-70
2024/04/05 03:07:37;;;;;;;;;;;;;;;;;;4960515;28;93797;-71
2024/04/05 03:10:02;;;;;;;;;;;;;;;;;;4961505;28;93512;-70
2024/04/05 03:12:28;;;;;;;;;;;;;;;;;;4961684;28;92991;-71
2024/04/05 03:14:53;;;;;;;;;;;;;;;;;;4961300;28;93067;-70
2024/04/05 03:17:18;;;;;;;;;;;;;;;;;;4961512;28;92846;-69
2024/04/05 03:19:43;;;;;;;;;;;;;;;;;;4961140;28;92836;-70
2024/04/05 03:22:09;;;;;;;;;;;;;;;;;;4961224;28;93103;-70
2024/04/05 03:24:34;;;;;;;;;;;;;;;;;;4964516;28;92670;-69
2024/04/05 03:26:59;;;;;;;;;;;;;;;;;;4960529;28;92808;-70
2024/04/05 03:29:24;;;;;;;;;;;;;;;;;;4960790;28;92950;-69
2024/04/05 03:31:50;;;;;;;;;;;;;;;;;;4960817;28;93834;-70
2024/04/05 03:34:15;;;;;;;;;;;;;;;;;;4961468;28;92287;-69
2024/04/05 03:36:40;;;;;;;;;;;;;;;;;;4992700;28;93745;-69
2024/04/05 03:39:08;;;;;;;;;;;;;;;;;;4961027;28;92852;-70
2024/04/05 03:41:33;;;;;;;;;;;;;;;;;;4961208;28;92674;-70
2024/04/05 03:43:59;;;;;;;;;;;;;;;;;;4954503;28;93443;-69
2024/04/05 03:46:24;;;;;;;;;;;;;;;;;;4958167;28;93576;-69
2024/04/05 03:48:49;;;;;;;;;;;;;;;;;;4960957;28;93040;-70
2024/04/05 03:51:15;;;;;;;;;;;;;;;;;;4961110;28;93198;-70
2024/04/05 03:53:40;;;;;;;;;;;;;;;;;;4961034;28;92658;-70
2024/04/05 03:56:06;;;;;;;;;;;;;;;;;;4960230;28;93178;-69
2024/04/05 03:58:31;;;;;;;;;;;;;;;;;;4991782;28;95555;-69
2024/04/05 04:00:57;;;;;;;;;;;;;;;;;;4960269;28;92598;-70
2024/04/05 04:03:22;;;;;;;;;;;;;;;;;;4960712;28;93718;-69
2024/04/05 04:05:47;;;;;;;;;;;;;;;;;;4958473;28;95378;-69
2024/04/05 04:08:12;;;;;;;;;;;;;;;;;;4963640;28;93245;-70
2024/04/05 04:10:39;;;;;;;;;;;;;;;;;;4958385;28;93289;-70
2024/04/05 04:13:04;;;;;;;;;;;;;;;;;;4960470;28;92208;-69
2024/04/05 04:15:29;;;;;;;;;;;;;;;;;;4962208;28;93274;-69
2024/04/05 04:17:54;;;;;;;;;;;;;;;;;;4959829;28;93218;-70
2024/04/05 04:20:20;;;;;;;;;;;;;;;;;;4994732;28;94193;-71
2024/04/05 04:22:45;;;;;;;;;;;;;;;;;;4954891;28;93466;-70
2024/04/05 04:25:11;;;;;;;;;;;;;;;;;;4963515;28;92861;-70
2024/04/05 04:27:36;;;;;;;;;;;;;;;;;;4964509;28;93241;-70
2024/04/05 04:30:02;;;;;;;;;;;;;;;;;;4967593;28;92599;-71
2024/04/05 04:32:27;;;;;;;;;;;;;;;;;;4963589;28;92797;-71
2024/04/05 04:34:52;;;;;;;;;;;;;;;;;;4962686;28;92731;-72
2024/04/05 04:37:21;;;;;;;;;;;;;;;;;;4964371;28;92130;-70
2024/04/05 04:39:46;;;;;;;;;;;;;;;;;;4963877;28;93000;-70
2024/04/05 04:42:12;;;;;;;;;;;;;;;;;;4963489;28;93593;-70
2024/04/05 04:44:37;;;;;;;;;;;;;;;;;;4961681;28;93932;-69
2024/04/05 04:47:02;;;;;;;;;;;;;;;;;;4960751;28;93254;-70
2024/04/05 04:49:28;;;;;;;;;;;;;;;;;;4958128;28;92809;-70
2024/04/05 04:51:53;;;;;;;;;;;;;;;;;;4962245;28;92773;-70
2024/04/05 04:54:18;;;;;;;;;;;;;;;;;;4963424;28;92964;-70
2024/04/05 04:56:44;;;;;;;;;;;;;;;;;;4963315;28;93328;-69
2024/04/05 04:59:09;;;;;;;;;;;;;;;;;;4963621;28;92272;-70
2024/04/05 05:01:35;;;;;;;;;;;;;;;;;;4963778;28;93007;-71
2024/04/05 05:04:00;;;;;;;;;;;;;;;;;;4962951;28;93215;-69
2024/04/05 05:06:25;;;;;;;;;;;;;;;;;;4994636;28;93040;-70
2024/04/05 05:08:51;;;;;;;;;;;;;;;;;;4993184;28;93525;-70
2024/04/05 05:11:16;;;;;;;;;;;;;;;;;;4966504;28;92982;-69
2024/04/05 05:13:42;;;;;;;;;;;;;;;;;;4963153;28;92674;-70
2024/04/05 05:16:07;;;;;;;;;;;;;;;;;;4960980;28;92628;-70
2024/04/05 05:18:33;;;;;;;;;;;;;;;;;;4963189;28;92772;-69
2024/04/05 05:20:58;;;;;;;;;;;;;;;;;;4962981;28;93102;-70
2024/04/05 05:23:23;;;;;;;;;;;;;;;;;;4962860;28;92829;-70
2024/04/05 05:25:48;;;;;;;;;;;;;;;;;;4963794;28;93137;-70
2024/04/05 05:28:14;;;;;;;;;;;;;;;;;;4963390;28;92452;-70
2024/04/05 05:30:39;;;;;;;;;;;;;;;;;;4960575;28;95392;-73
2024/04/05 05:33:05;;;;;;;;;;;;;;;;;;4966162;28;94059;-74
2024/04/05 05:35:30;;;;;;;;;;;;;;;;;;4962316;28;93007;-73
2024/04/05 05:37:56;;;;;;;;;;;;;;;;;;4962168;28;92856;-73
2024/04/05 05:40:21;;;;;;;;;;;;;;;;;;4962266;28;93297;-74
2024/04/05 05:42:46;;;;;;;;;;;;;;;;;;4963104;28;92938;-69
2024/04/05 05:45:11;;;;;;;;;;;;;;;;;;4962822;28;93294;-69
2024/04/05 05:47:37;;;;;;;;;;;;;;;;;;4962589;28;93160;-69
2024/04/05 05:50:02;;;;;;;;;;;;;;;;;;4962983;28;92632;-68
2024/04/05 05:52:27;;;;;;;;;;;;;;;;;;4962792;28;92656;-68
2024/04/05 05:54:52;;;;;;;;;;;;;;;;;;4966147;28;92709;-71
2024/04/05 05:57:18;;;;;;;;;;;;;;;;;;4961790;28;93228;-70
2024/04/05 05:59:43;;;;;;;;;;;;;;;;;;4961913;28;95014;-70
2024/04/05 06:02:08;;;;;;;;;;;;;;;;;;4961790;28;93000;-70
2024/04/05 06:04:34;;;;;;;;;;;;;;;;;;4993249;28;92830;-69
2024/04/05 06:06:59;;;;;;;;;;;;;;;;;;4960243;28;95573;-69
2024/04/05 06:09:25;;;;;;;;;;;;;;;;;;4961593;28;93807;-69
2024/04/05 06:11:51;;;;;;;;;;;;;;;;;;4961486;28;92667;-70
2024/04/05 06:14:16;;;;;;;;;;;;;;;;;;4963206;28;92451;-68
2024/04/05 06:16:41;;;;;;;;;;;;;;;;;;4964459;28;94014;-69
2024/04/05 06:19:07;;;;;;;;;;;;;;;;;;4961997;28;92753;-70
2024/04/05 06:21:32;;;;;;;;;;;;;;;;;;4961967;28;94596;-71
2024/04/05 06:23:59;;;;;;;;;;;;;;;;;;4961630;28;92344;-71
2024/04/05 06:26:28;;;;;;;;;;;;;;;;;;4962433;28;92842;-72
2024/04/05 06:28:53;;;;;;;;;;;;;;;;;;4992684;28;95530;-71
2024/04/05 06:31:18;;;;;;;;;;;;;;;;;;4961684;28;93572;-70
2024/04/05 06:33:44;;;;;;;;;;;;;;;;;;4962057;28;94047;-71
2024/04/05 06:36:09;;;;;;;;;;;;;;;;;;4961365;28;92978;-76
2024/04/05 06:38:35;;;;;;;;;;;;;;;;;;4965027;28;92138;-70
2024/04/05 06:41:00;;;;;;;;;;;;;;;;;;4961072;28;93572;-72
2024/04/05 06:43:26;;;;;;;;;;;;;;;;;;4961639;28;92636;-71
2024/04/05 06:45:57;;;;;;;;;;;;;;;;;;4960472;28;94132;-73
2024/04/05 06:48:22;;;;;;;;;;;;;;;;;;4960967;28;93562;-69
2024/04/05 06:50:48;;;;;;;;;;;;;;;;;;4961972;28;92833;-69
2024/04/05 06:53:14;;;;;;;;;;;;;;;;;;4960255;28;93443;-71
2024/04/05 06:55:49;;;;;;;;;;;;;;;;;;4960646;28;93210;-70
2024/04/05 06:58:15;;;;;;;;;;;;;;;;;;4961737;28;92972;-71
2024/04/05 07:00:41;;;;;;;;;;;;;;;;;;4963055;28;93268;-73
2024/04/05 07:03:06;;;;;;;;;;;;;;;;;;4958272;28;91769;-69
2024/04/05 07:05:32;;;;;;;;;;;;;;;;;;4959715;28;92436;-69
2024/04/05 07:07:57;;;;;;;;;;;;;;;;;;4955783;28;92961;-69
2024/04/05 07:10:22;;;;;;;;;;;;;;;;;;4956969;28;93443;-69
2024/04/05 07:12:50;;;;;;;;;;;;;;;;;;4961338;28;94767;-70
2024/04/05 07:15:15;;;;;;;;;;;;;;;;;;4961349;28;93672;-72
2024/04/05 07:17:40;;;;;;;;;;;;;;;;;;4960718;28;92484;-69
2024/04/05 07:20:06;;;;;;;;;;;;;;;;;;4963391;28;93607;-69
2024/04/05 07:22:31;;;;;;;;;;;;;;;;;;4961578;28;92927;-69
2024/04/05 07:24:56;;;;;;;;;;;;;;;;;;4956349;28;93105;-69
2024/04/05 07:27:22;;;;;;;;;;;;;;;;;;4961652;28;92508;-71
2024/04/05 07:29:48;;;;;;;;;;;;;;;;;;4960573;28;92257;-69
2024/04/05 07:32:13;;;;;;;;;;;;;;;;;;4962225;28;93457;-70
2024/04/05 07:34:38;;;;;;;;;;;;;;;;;;4958562;28;94295;-70
2024/04/05 07:37:04;;;;;;;;;;;;;;;;;;4953873;28;92798;-70
2024/04/05 07:39:29;;;;;;;;;;;;;;;;;;4958298;28;93612;-71
2024/04/05 07:41:54;;;;;;;;;;;;;;;;;;4962593;28;93700;-71
2024/04/05 07:44:20;;;;;;;;;;;;;;;;;;4960471;28;93937;-70
2024/04/05 07:46:45;;;;;;;;;;;;;;;;;;4960293;28;93928;-72
2024/04/05 07:49:11;;;;;;;;;;;;;;;;;;4960844;28;93036;-71
2024/04/05 07:51:36;;;;;;;;;;;;;;;;;;4959320;28;93447;-73
2024/04/05 07:54:02;;;;;;;;;;;;;;;;;;4962330;28;92982;-72
2024/04/05 07:56:27;;;;;;;;;;;;;;;;;;4964489;28;92548;-70
2024/04/05 07:58:52;;;;;;;;;;;;;;;;;;4963480;28;93545;-72
2024/04/05 08:01:18;;;;;;;;;;;;;;;;;;4964507;28;93152;-72
2024/04/05 08:03:43;;;;;;;;;;;;;;;;;;4967245;28;92239;-73
2024/04/05 08:06:09;;;;;;;;;;;;;;;;;;4962409;28;93276;-70
2024/04/05 08:08:34;;;;;;;;;;;;;;;;;;4963700;28;93106;-72
2024/04/05 08:11:03;;;;;;;;;;;;;;;;;;4963555;28;92612;-70
2024/04/05 08:13:28;;;;;;;;;;;;;;;;;;4962806;28;92757;-70
2024/04/05 08:15:54;;;;;;;;;;;;;;;;;;4962934;28;91865;-70
2024/04/05 08:18:19;;;;;;;;;;;;;;;;;;4963017;28;93001;-70
2024/04/05 08:20:45;;;;;;;;;;;;;;;;;;4969415;28;93437;-71
2024/04/05 08:23:10;;;;;;;;;;;;;;;;;;4963077;28;93266;-71
2024/04/05 08:25:36;;;;;;;;;;;;;;;;;;4965925;28;93639;-70
2024/04/05 08:28:02;;;;;;;;;;;;;;;;;;4963420;28;92997;-70
2024/04/05 08:30:27;;;;;;;;;;;;;;;;;;4962982;28;92568;-70
2024/04/05 08:32:53;;;;;;;;;;;;;;;;;;4963481;28;93115;-73
2024/04/05 08:35:18;;;;;;;;;;;;;;;;;;4963912;28;92797;-70
2024/04/05 08:37:44;;;;;;;;;;;;;;;;;;4964318;28;92549;-72
2024/04/05 08:40:10;;;;;;;;;;;;;;;;;;4960522;28;92401;-72
2024/04/05 08:42:37;;;;;;;;;;;;;;;;;;4963046;28;93005;-72
2024/04/05 08:45:03;;;;;;;;;;;;;;;;;;4962370;28;93237;-72
2024/04/05 08:47:30;;;;;;;;;;;;;;;;;;4962076;28;93792;-72
2024/04/05 08:49:56;;;;;;;;;;;;;;;;;;4994840;28;96273;-73
2024/04/05 08:52:22;;;;;;;;;;;;;;;;;;4963507;28;92729;-71
2024/04/05 08:54:47;;;;;;;;;;;;;;;;;;4962908;28;92872;-73
2024/04/05 08:57:13;;;;;;;;;;;;;;;;;;4963687;28;93102;-72
2024/04/05 08:59:39;;;;;;;;;;;;;;;;;;4963665;28;93537;-73
2024/04/05 09:02:08;;;;;;;;;;;;;;;;;;4963260;28;92818;-70
2024/04/05 09:04:33;;;;;;;;;;;;;;;;;;4964152;28;92776;-74
2024/04/05 09:06:59;;;;;;;;;;;;;;;;;;4995434;28;95359;-72
2024/04/05 09:09:28;;;;;;;;;;;;;;;;;;4965000;28;92363;-72
2024/04/05 09:12:00;;;;;;;;;;;;;;;;;;4957995;28;93930;-73
2024/04/05 09:14:25;;;;;;;;;;;;;;;;;;4963581;28;93235;-72
2024/04/05 09:16:51;;;;;;;;;;;;;;;;;;4963311;28;92648;-72
2024/04/05 09:19:17;;;;;;;;;;;;;;;;;;4962170;28;95695;-72
2024/04/05 09:21:42;;;;;;;;;;;;;;;;;;4962932;28;93162;-72
2024/04/05 09:24:07;;;;;;;;;;;;;;;;;;4994195;28;93474;-76
2024/04/05 09:26:33;;;;;;;;;;;;;;;;;;4962640;28;92877;-72
2024/04/05 09:28:58;;;;;;;;;;;;;;;;;;4965630;28;92575;-72
2024/04/05 09:31:24;;;;;;;;;;;;;;;;;;4963005;28;93220;-72
2024/04/05 09:33:50;;;;;;;;;;;;;;;;;;4962902;28;92330;-72
2024/04/05 09:36:17;;;;;;;;;;;;;;;;;;4961713;28;93767;-71
2024/04/05 09:38:44;;;;;;;;;;;;;;;;;;4961701;28;92737;-73
2024/04/05 09:41:10;;;;;;;;;;;;;;;;;;4962150;28;92957;-76
2024/04/05 09:43:36;;;;;;;;;;;;;;;;;;4961982;28;92833;-72
2024/04/05 09:46:04;;;;;;;;;;;;;;;;;;4958056;28;93814;-74
2024/04/05 09:48:32;;;;;;;;;;;;;;;;;;4961038;28;92869;-73
2024/04/05 09:50:59;;;;;;;;;;;;;;;;;;4964809;28;93513;-73
2024/04/05 09:53:26;;;;;;;;;;;;;;;;;;4961432;28;92177;-74
2024/04/05 09:55:52;;;;;;;;;;;;;;;;;;4961976;28;93487;-73
2024/04/05 09:58:20;;;;;;;;;;;;;;;;;;4960863;28;96134;-73
2024/04/05 10:00:46;;;;;;;;;;;;;;;;;;4959665;28;93383;-74
2024/04/05 10:03:12;;;;;;;;;;;;;;;;;;4961288;28;93953;-73
2024/04/05 10:05:38;;;;;;;;;;;;;;;;;;4960377;28;93434;-73
2024/04/05 10:08:10;;;;;;;;;;;;;;;;;;4961239;28;93253;-76
2024/04/05 10:10:35;;;;;;;;;;;;;;;;;;4961781;28;92488;-73
2024/04/05 10:13:17;;;;;;;;;;;;;;;;;;4964692;28;93545;-74
2024/04/05 10:15:58;;;;;;;;;;;;;;;;;;4961126;28;93326;-73
2024/04/05 10:18:24;;;;;;;;;;;;;;;;;;4971455;28;92493;-73
2024/04/05 10:20:57;;;;;;;;;;;;;;;;;;4961664;28;92626;-72
2024/04/05 10:23:23;;;;;;;;;;;;;;;;;;4961880;28;92647;-72
2024/04/05 10:25:48;;;;;;;;;;;;;;;;;;4961665;28;93982;-75
2024/04/05 10:28:17;;;;;;;;;;;;;;;;;;4963291;28;92976;-78
2024/04/05 10:30:42;;;;;;;;;;;;;;;;;;4963881;28;92263;-79
2024/04/05 10:33:08;;;;;;;;;;;;;;;;;;4962338;28;92660;-77
2024/04/05 10:35:33;;;;;;;;;;;;;;;;;;4996508;28;92842;-75
2024/04/05 10:37:59;;;;;;;;;;;;;;;;;;4994334;28;95768;-80
2024/04/05 10:40:24;;;;;;;;;;;;;;;;;;4961839;28;92653;-76
2024/04/05 10:42:50;;;;;;;;;;;;;;;;;;4961969;28;92982;-76
2024/04/05 10:45:18;;;;;;;;;;;;;;;;;;4961646;28;95756;-76
2024/04/05 10:47:51;;;;;;;;;;;;;;;;;;4995744;28;92695;-76
2024/04/05 10:50:18;;;;;;;;;;;;;;;;;;4961396;28;93983;-77
2024/04/05 10:52:52;;;;;;;;;;;;;;;;;;4960653;28;95378;-75
2024/04/05 10:55:17;;;;;;;;;;;;;;;;;;4961686;28;92499;-74
2024/04/05 10:57:43;;;;;;;;;;;;;;;;;;4964096;28;92915;-75
2024/04/05 11:00:11;;;;;;;;;;;;;;;;;;4960360;28;94509;-73
2024/04/05 11:02:38;;;;;;;;;;;;;;;;;;4961183;28;92602;-72
2024/04/05 11:05:13;;;;;;;;;;;;;;;;;;4961249;28;93682;-73
2024/04/05 11:07:39;;;;;;;;;;;;;;;;;;4961551;28;92223;-73
2024/04/05 11:10:14;;;;;;;;;;;;;;;;;;4992923;28;93029;-75
2024/04/05 11:12:39;;;;;;;;;;;;;;;;;;4959588;28;93137;-74
2024/04/05 11:15:05;;;;;;;;;;;;;;;;;;4956223;28;93536;-78
2024/04/05 11:17:30;;;;;;;;;;;;;;;;;;4964435;28;94289;-75
2024/04/05 11:20:09;;;;;;;;;;;;;;;;;;4958661;28;92794;-74
2024/04/05 11:22:34;;;;;;;;;;;;;;;;;;4959530;28;92588;-74
2024/04/05 11:25:00;;;;;;;;;;;;;;;;;;4957787;28;93047;-75
2024/04/05 11:27:26;;;;;;;;;;;;;;;;;;4961355;28;92671;-76
2024/04/05 11:29:52;;;;;;;;;;;;;;;;;;4952879;28;93621;-75
2024/04/05 11:32:25;;;;;;;;;;;;;;;;;;4962629;28;92913;-75
2024/04/05 11:34:50;;;;;;;;;;;;;;;;;;4961108;28;92638;-76
2024/04/05 11:37:15;;;;;;;;;;;;;;;;;;4961409;28;92565;-76
2024/04/05 11:39:44;;;;;;;;;;;;;;;;;;4963492;28;95671;-76
2024/04/05 11:42:09;;;;;;;;;;;;;;;;;;4960755;28;93312;-75
2024/04/05 11:44:34;;;;;;;;;;;;;;;;;;4961862;28;93008;-79
2024/04/05 11:46:59;;;;;;;;;;;;;;;;;;4962099;28;92657;-76
2024/04/05 11:49:25;;;;;;;;;;;;;;;;;;4956996;28;95474;-77
2024/04/05 11:51:50;;;;;;;;;;;;;;;;;;4961286;28;93221;-76
2024/04/05 11:54:16;;;;;;;;;;;;;;;;;;4960271;28;93524;-76
2024/04/05 11:56:42;;;;;;;;;;;;;;;;;;4960925;28;92576;-76
2024/04/05 11:59:07;;;;;;;;;;;;;;;;;;4960820;28;93084;-76
2024/04/05 12:01:32;;;;;;;;;;;;;;;;;;4964051;28;92597;-77
2024/04/05 12:03:57;;;;;;;;;;;;;;;;;;4959752;28;94291;-83
2024/04/05 12:06:23;;;;;;;;;;;;;;;;;;4961773;28;93670;-76
2024/04/05 12:08:48;;;;;;;;;;;;;;;;;;4960564;28;92946;-79
2024/04/05 12:11:13;;;;;;;;;;;;;;;;;;4958940;28;93463;-78
2024/04/05 12:13:39;;;;;;;;;;;;;;;;;;4965134;28;92649;-79
2024/04/05 12:16:05;;;;;;;;;;;;;;;;;;4960990;28;93187;-74
2024/04/05 12:18:30;;;;;;;;;;;;;;;;;;4960199;28;93269;-74
2024/04/05 12:20:55;;;;;;;;;;;;;;;;;;4959973;28;91925;-75
2024/04/05 12:23:22;;;;;;;;;;;;;;;;;;4962929;28;92659;-73
2024/04/05 12:25:57;;;;;;;;;;;;;;;;;;4959610;28;92895;-74
2024/04/05 12:28:22;;;;;;;;;;;;;;;;;;4958194;28;93659;-74
2024/04/05 12:30:47;;;;;;;;;;;;;;;;;;4958783;28;93178;-74
2024/04/05 12:33:12;;;;;;;;;;;;;;;;;;4948345;28;92424;-73
2024/04/05 12:35:38;;;;;;;;;;;;;;;;;;4959277;28;93127;-74
2024/04/05 12:38:03;;;;;;;;;;;;;;;;;;4959632;28;92842;-74
2024/04/05 12:40:39;;;;;;;;;;;;;;;;;;4960218;28;93146;-74
2024/04/05 12:43:05;;;;;;;;;;;;;;;;;;4963776;28;92797;-74
2024/04/05 12:45:31;;;;;;;;;;;;;;;;;;4967639;28;92044;-74
2024/04/05 12:47:56;;;;;;;;;;;;;;;;;;4964249;28;92530;-74
2024/04/05 12:50:21;;;;;;;;;;;;;;;;;;4963547;28;93856;-73
2024/04/05 12:52:46;;;;;;;;;;;;;;;;;;4963666;28;95123;-74
2024/04/05 12:55:11;;;;;;;;;;;;;;;;;;4963685;28;93827;-74
2024/04/05 12:57:37;;;;;;;;;;;;;;;;;;4963142;28;92872;-74
2024/04/05 13:00:04;;;;;;;;;;;;;;;;;;4963423;28;93069;-74
2024/04/05 13:02:30;;;;;;;;;;;;;;;;;;4962192;28;93556;-73
2024/04/05 13:04:55;;;;;;;;;;;;;;;;;;4963786;28;93653;-74
2024/04/05 13:07:21;;;;;;;;;;;;;;;;;;4966486;28;93849;-74
2024/04/05 13:09:46;;;;;;;;;;;;;;;;;;4964096;28;92143;-74
2024/04/05 13:12:11;;;;;;;;;;;;;;;;;;4964107;28;92311;-74
2024/04/05 13:14:36;;;;;;;;;;;;;;;;;;4962689;28;94646;-74
2024/04/05 13:17:02;;;;;;;;;;;;;;;;;;4963418;28;93922;-74
2024/04/05 13:19:27;;;;;;;;;;;;;;;;;;4963205;28;92623;-73
2024/04/05 13:21:52;;;;;;;;;;;;;;;;;;4963785;28;92625;-74
2024/04/05 13:24:17;;;;;;;;;;;;;;;;;;4962325;28;94436;-74
2024/04/05 13:26:43;;;;;;;;;;;;;;;;;;4964827;28;92838;-74
2024/04/05 13:29:08;;;;;;;;;;;;;;;;;;4962813;28;93578;-74
2024/04/05 13:31:33;;;;;;;;;;;;;;;;;;4963086;28;92759;-74
2024/04/05 13:34:00;;;;;;;;;;;;;;;;;;4962265;28;92679;-74
2024/04/05 13:36:25;;;;;;;;;;;;;;;;;;4956797;28;92919;-74
2024/04/05 13:38:51;;;;;;;;;;;;;;;;;;4961493;28;92692;-74
2024/04/05 13:41:16;;;;;;;;;;;;;;;;;;4962015;28;94976;-74
2024/04/05 13:43:42;;;;;;;;;;;;;;;;;;4961088;28;93123;-74
2024/04/05 13:46:16;;;;;;;;;;;;;;;;;;4961044;28;92697;-74
2024/04/05 13:48:45;;;;;;;;;;;;;;;;;;4965453;28;93770;-74
2024/04/05 13:51:11;;;;;;;;;;;;;;;;;;4958494;28;92982;-75
2024/04/05 13:53:37;;;;;;;;;;;;;;;;;;4960952;28;95368;-73
2024/04/05 13:56:03;;;;;;;;;;;;;;;;;;4960229;28;93127;-74
2024/04/05 13:58:29;;;;;;;;;;;;;;;;;;4961721;28;93806;-74
2024/04/05 14:00:54;;;;;;;;;;;;;;;;;;4962059;28;92693;-74
2024/04/05 14:03:20;;;;;;;;;;;;;;;;;;4960957;28;95359;-74
2024/04/05 14:05:45;;;;;;;;;;;;;;;;;;4962192;28;93718;-74
2024/04/05 14:08:10;;;;;;;;;;;;;;;;;;4962736;28;93503;-74
2024/04/05 14:10:37;;;;;;;;;;;;;;;;;;4973868;28;93236;-73
2024/04/05 14:13:03;;;;;;;;;;;;;;;;;;4963054;28;93499;-74
2024/04/05 14:15:28;;;;;;;;;;;;;;;;;;4963197;28;93684;-74
2024/04/05 14:17:54;;;;;;;;;;;;;;;;;;4963560;28;93223;-73
2024/04/05 14:20:19;;;;;;;;;;;;;;;;;;4962524;28;92589;-74
2024/04/05 14:22:44;;;;;;;;;;;;;;;;;;4962524;28;92343;-74
2024/04/05 14:25:09;;;;;;;;;;;;;;;;;;4962205;28;92273;-73
2024/04/05 14:27:35;;;;;;;;;;;;;;;;;;4962209;28;92719;-74
2024/04/05 14:30:01;;;;;;;;;;;;;;;;;;4959403;28;95126;-74
2024/04/05 14:32:26;;;;;;;;;;;;;;;;;;4965050;28;93087;-73
2024/04/05 14:34:52;;;;;;;;;;;;;;;;;;4961698;28;92824;-74
2024/04/05 14:37:17;;;;;;;;;;;;;;;;;;4961801;28;93875;-74
2024/04/05 14:39:43;;;;;;;;;;;;;;;;;;4960186;28;93599;-74
2024/04/05 14:42:10;;;;;;;;;;;;;;;;;;4955796;28;95610;-74
2024/04/05 14:44:35;;;;;;;;;;;;;;;;;;4961518;28;92422;-74
2024/04/05 14:47:00;;;;;;;;;;;;;;;;;;4962070;28;93405;-73
2024/04/05 14:49:26;;;;;;;;;;;;;;;;;;4992778;28;95198;-73
2024/04/05 14:51:51;;;;;;;;;;;;;;;;;;4961606;28;93669;-73
2024/04/05 14:54:17;;;;;;;;;;;;;;;;;;4963442;28;93462;-73
2024/04/05 14:56:42;;;;;;;;;;;;;;;;;;4960682;28;92598;-74
2024/04/05 14:59:08;;;;;;;;;;;;;;;;;;4960356;28;92745;-73
2024/04/05 15:01:33;;;;;;;;;;;;;;;;;;4954205;28;92886;-74
2024/04/05 15:03:58;;;;;;;;;;;;;;;;;;4958905;28;93011;-74
2024/04/05 15:06:24;;;;;;;;;;;;;;;;;;4960848;28;92519;-74
2024/04/05 15:08:49;;;;;;;;;;;;;;;;;;4961167;28;93467;-74
2024/04/05 15:11:16;;;;;;;;;;;;;;;;;;4961239;28;91941;-74
2024/04/05 15:13:41;;;;;;;;;;;;;;;;;;4960775;28;92939;-73
2024/04/05 15:16:09;;;;;;;;;;;;;;;;;;4963411;28;93192;-74
2024/04/05 15:18:34;;;;;;;;;;;;;;;;;;4960814;28;93840;-74
2024/04/05 15:20:59;;;;;;;;;;;;;;;;;;4961370;28;93360;-74
2024/04/05 15:23:25;;;;;;;;;;;;;;;;;;4992483;28;94127;-74
2024/04/05 15:25:51;;;;;;;;;;;;;;;;;;4960561;28;92515;-74
2024/04/05 15:28:16;;;;;;;;;;;;;;;;;;4959788;28;92847;-74
2024/04/05 15:30:41;;;;;;;;;;;;;;;;;;4960763;28;92260;-74
2024/04/05 15:33:06;;;;;;;;;;;;;;;;;;4960895;28;92804;-73
2024/04/05 15:35:32;;;;;;;;;;;;;;;;;;4995944;28;94737;-74
2024/04/05 15:37:57;;;;;;;;;;;;;;;;;;4961133;28;93011;-74
2024/04/05 15:40:24;;;;;;;;;;;;;;;;;;4991987;28;97295;-73
2024/04/05 15:42:49;;;;;;;;;;;;;;;;;;4959704;28;94539;-74
2024/04/05 15:45:14;;;;;;;;;;;;;;;;;;4955095;28;94254;-72
2024/04/05 15:47:40;;;;;;;;;;;;;;;;;;4985202;28;95690;-73
2024/04/05 15:50:06;;;;;;;;;;;;;;;;;;4957393;28;92636;-74
2024/04/05 15:52:31;;;;;;;;;;;;;;;;;;4960440;28;93859;-73
2024/04/05 15:54:56;;;;;;;;;;;;;;;;;;4960271;28;93104;-73
2024/04/05 15:57:21;;;;;;;;;;;;;;;;;;4962853;28;93151;-74
2024/04/05 15:59:46;;;;;;;;;;;;;;;;;;4959730;28;94628;-74
2024/04/05 16:02:12;;;;;;;;;;;;;;;;;;4958278;28;93996;-74
2024/04/05 16:04:41;;;;;;;;;;;;;;;;;;4959294;28;92870;-74
2024/04/05 16:07:06;;;;;;;;;;;;;;;;;;4960311;28;94197;-74
2024/04/05 16:09:31;;;;;;;;;;;;;;;;;;4958951;28;92957;-74
2024/04/05 16:11:56;;;;;;;;;;;;;;;;;;4960023;28;93136;-74
2024/04/05 16:14:22;;;;;;;;;;;;;;;;;;4961942;28;92811;-74
2024/04/05 16:16:47;;;;;;;;;;;;;;;;;;4963781;28;92999;-73
2024/04/05 16:19:12;;;;;;;;;;;;;;;;;;4965237;28;95229;-74
2024/04/05 16:21:37;;;;;;;;;;;;;;;;;;4963488;28;92872;-74
2024/04/05 16:24:03;;;;;;;;;;;;;;;;;;4963785;28;92455;-73
2024/04/05 16:26:28;;;;;;;;;;;;;;;;;;4994377;28;93087;-74
2024/04/05 16:28:53;;;;;;;;;;;;;;;;;;4961849;28;92207;-74
2024/04/05 16:31:18;;;;;;;;;;;;;;;;;;4962761;28;93771;-74
2024/04/05 16:33:44;;;;;;;;;;;;;;;;;;4963123;28;93149;-74
2024/04/05 16:36:09;;;;;;;;;;;;;;;;;;4962799;28;92439;-73